createdAt,value
2018-08-25T00:01:33.635Z,28.37
2018-08-25T00:04:01.862Z,28.43
2018-08-25T00:06:30.093Z,32.57
2018-08-25T00:08:58.280Z,28.30
2018-08-25T00:11:26.482Z,29.23
2018-08-25T00:13:54.675Z,27.70
2018-08-25T00:16:22.892Z,28.30
2018-08-25T00:18:51.113Z,28.33
2018-08-25T00:21:19.338Z,35.87
2018-08-25T00:23:47.531Z,30.20
2018-08-25T00:26:15.806Z,28.90
2018-08-25T00:28:44.032Z,32.90
2018-08-25T00:31:17.638Z,27.93
2018-08-25T00:33:45.848Z,34.20
2018-08-25T00:36:14.088Z,31.13
2018-08-25T00:38:42.307Z,27.20
2018-08-25T00:41:10.524Z,29.37
2018-08-25T00:43:38.780Z,32.80
2018-08-25T00:46:06.993Z,33.50
2018-08-25T00:48:35.368Z,29.50
2018-08-25T00:51:03.709Z,27.13
2018-08-25T00:53:31.957Z,28.77
2018-08-25T00:56:01.013Z,26.27
2018-08-25T00:58:29.228Z,28.10
2018-08-25T01:00:57.527Z,29.83
2018-08-25T01:03:25.944Z,32.13
2018-08-25T01:05:54.150Z,29.50
2018-08-25T01:08:22.411Z,24.00
2018-08-25T01:10:50.628Z,24.83
2018-08-25T01:13:18.880Z,25.53
2018-08-25T01:15:47.222Z,25.37
2018-08-25T01:18:15.360Z,24.57
2018-08-25T01:20:43.591Z,24.27
2018-08-25T01:23:11.826Z,23.87
2018-08-25T01:25:40.060Z,25.53
2018-08-25T01:28:08.299Z,22.43
2018-08-25T01:30:36.514Z,23.27
2018-08-25T01:33:04.862Z,22.50
2018-08-25T01:35:33.084Z,21.57
2018-08-25T01:38:01.333Z,23.20
2018-08-25T01:40:29.588Z,26.43
2018-08-25T01:42:57.805Z,23.30
2018-08-25T01:45:26.029Z,23.13
2018-08-25T01:47:54.261Z,24.40
2018-08-25T01:50:22.467Z,26.47
2018-08-25T01:52:50.689Z,24.57
2018-08-25T01:55:18.958Z,23.13
2018-08-25T01:57:47.204Z,22.97
2018-08-25T02:00:15.445Z,25.90
2018-08-25T02:02:43.704Z,27.07
2018-08-25T02:05:11.931Z,27.60
2018-08-25T02:07:40.135Z,25.10
2018-08-25T02:12:38.103Z,22.23
2018-08-25T02:15:06.328Z,22.77
2018-08-25T02:17:34.555Z,26.60
2018-08-25T02:20:02.764Z,20.60
2018-08-25T02:22:30.984Z,22.27
2018-08-25T02:24:59.209Z,22.10
2018-08-25T02:27:27.452Z,23.70
2018-08-25T02:29:55.660Z,21.17
2018-08-25T02:32:23.858Z,21.83
2018-08-25T02:34:52.071Z,21.17
2018-08-25T02:37:20.273Z,21.43
2018-08-25T02:39:48.477Z,19.10
2018-08-25T02:42:16.668Z,22.10
2018-08-25T02:44:44.893Z,18.93
2018-08-25T02:47:13.068Z,25.07
2018-08-25T02:49:41.256Z,21.67
2018-08-25T02:52:09.424Z,24.00
2018-08-25T02:54:37.628Z,25.40
2018-08-25T02:57:05.878Z,23.13
2018-08-25T02:59:34.057Z,23.50
2018-08-25T03:02:02.244Z,25.40
2018-08-25T03:04:30.442Z,24.37
2018-08-25T03:06:58.634Z,26.47
2018-08-25T03:09:26.859Z,26.00
2018-08-25T03:11:55.052Z,24.67
2018-08-25T03:14:23.280Z,22.73
2018-08-25T03:16:51.774Z,21.20
2018-08-25T03:19:20.138Z,22.53
2018-08-25T03:21:48.352Z,20.37
2018-08-25T03:24:16.627Z,21.67
2018-08-25T03:26:44.861Z,20.37
2018-08-25T03:29:13.071Z,26.27
2018-08-25T03:31:41.634Z,18.60
2018-08-25T03:34:09.860Z,20.90
2018-08-25T03:36:38.053Z,22.93
2018-08-25T03:39:07.397Z,20.57
2018-08-25T03:41:35.594Z,17.70
2018-08-25T03:44:03.791Z,16.80
2018-08-25T03:46:32.019Z,17.17
2018-08-25T03:49:00.261Z,18.20
2018-08-25T03:51:28.463Z,18.77
2018-08-25T03:53:56.704Z,17.47
2018-08-25T03:56:24.905Z,18.53
2018-08-25T03:58:53.139Z,18.17
2018-08-25T04:01:21.334Z,18.97
2018-08-25T04:03:49.508Z,22.70
2018-08-25T04:06:17.670Z,15.60
2018-08-25T04:08:45.872Z,22.90
2018-08-25T04:11:14.049Z,16.13
2018-08-25T04:13:42.256Z,17.27
2018-08-25T04:16:10.420Z,15.63
2018-08-25T04:18:38.622Z,16.90
2018-08-25T04:21:06.848Z,21.20
2018-08-25T04:23:35.061Z,19.27
2018-08-25T04:26:03.271Z,17.87
2018-08-25T04:28:31.454Z,17.40
2018-08-25T04:30:59.646Z,16.83
2018-08-25T04:33:27.884Z,16.20
2018-08-25T04:35:56.105Z,15.00
2018-08-25T04:38:24.297Z,15.67
2018-08-25T04:40:52.517Z,17.30
2018-08-25T04:43:20.693Z,15.80
2018-08-25T04:45:48.929Z,15.83
2018-08-25T04:48:17.157Z,14.27
2018-08-25T04:50:45.368Z,19.60
2018-08-25T04:53:13.552Z,17.97
2018-08-25T04:55:41.777Z,16.23
2018-08-25T04:58:09.980Z,17.20
2018-08-25T05:00:38.190Z,14.80
2018-08-25T05:03:06.849Z,15.67
2018-08-25T05:05:35.071Z,14.83
2018-08-25T05:08:03.247Z,18.03
2018-08-25T05:10:31.449Z,15.37
2018-08-25T05:12:59.639Z,15.20
2018-08-25T05:15:27.849Z,18.23
2018-08-25T05:17:56.047Z,17.67
2018-08-25T05:20:24.269Z,16.47
2018-08-25T05:22:52.464Z,15.00
2018-08-25T05:25:20.676Z,19.60
2018-08-25T05:27:48.878Z,17.30
2018-08-25T05:30:17.096Z,16.30
2018-08-25T05:32:45.434Z,18.77
2018-08-25T05:35:13.667Z,15.73
2018-08-25T05:37:41.853Z,14.80
2018-08-25T05:40:10.075Z,16.47
2018-08-25T05:42:38.276Z,13.50
2018-08-25T05:45:06.506Z,21.20
2018-08-25T05:47:34.704Z,13.33
2018-08-25T05:50:02.937Z,12.90
2018-08-25T05:52:31.136Z,13.07
2018-08-25T05:54:59.324Z,13.87
2018-08-25T05:57:27.551Z,12.73
2018-08-25T05:59:55.757Z,11.03
2018-08-25T06:02:24.232Z,15.50
2018-08-25T06:04:52.463Z,16.70
2018-08-25T06:07:20.659Z,17.03
2018-08-25T06:09:48.851Z,13.07
2018-08-25T06:12:17.123Z,27.27
2018-08-25T06:14:45.325Z,13.37
2018-08-25T06:17:13.547Z,11.83
2018-08-25T06:19:41.745Z,14.03
2018-08-25T06:22:09.940Z,12.53
2018-08-25T06:24:38.142Z,13.00
2018-08-25T06:27:06.410Z,13.90
2018-08-25T06:29:34.709Z,14.50
2018-08-25T06:32:02.866Z,19.20
2018-08-25T06:34:31.063Z,12.73
2018-08-25T06:36:59.304Z,13.43
2018-08-25T06:39:27.503Z,13.23
2018-08-25T06:41:55.692Z,11.60
2018-08-25T06:44:23.875Z,11.83
2018-08-25T06:46:52.073Z,11.70
2018-08-25T06:49:20.242Z,12.20
2018-08-25T06:51:48.413Z,11.30
2018-08-25T06:54:16.588Z,10.40
2018-08-25T06:56:44.788Z,12.90
2018-08-25T06:59:12.971Z,11.43
2018-08-25T07:01:41.189Z,12.93
2018-08-25T07:04:09.523Z,11.17
2018-08-25T07:06:37.744Z,10.47
2018-08-25T07:09:07.948Z,10.40
2018-08-25T07:11:36.223Z,12.47
2018-08-25T07:14:04.444Z,12.37
2018-08-25T07:16:32.661Z,12.60
2018-08-25T07:19:00.934Z,13.43
2018-08-25T07:21:29.167Z,12.33
2018-08-25T07:23:57.366Z,11.70
2018-08-25T07:26:25.561Z,10.47
2018-08-25T07:28:53.749Z,8.33
2018-08-25T07:31:21.993Z,13.70
2018-08-25T07:33:50.177Z,9.73
2018-08-25T07:36:18.398Z,15.57
2018-08-25T07:38:46.545Z,13.87
2018-08-25T07:41:14.774Z,8.40
2018-08-25T07:43:42.975Z,10.43
2018-08-25T07:46:11.189Z,11.50
2018-08-25T07:48:39.456Z,8.90
2018-08-25T07:51:07.637Z,13.90
2018-08-25T07:53:35.842Z,9.10
2018-08-25T07:56:04.059Z,13.80
2018-08-25T07:58:32.332Z,16.13
2018-08-25T08:01:00.497Z,13.77
2018-08-25T08:03:28.709Z,11.73
2018-08-25T08:05:56.926Z,11.80
2018-08-25T08:08:25.386Z,10.03
2018-08-25T08:10:53.645Z,10.97
2018-08-25T08:13:21.849Z,9.17
2018-08-25T08:15:50.034Z,11.43
2018-08-25T08:18:18.262Z,11.33
2018-08-25T08:20:46.464Z,10.20
2018-08-25T08:23:14.698Z,11.77
2018-08-25T08:25:42.911Z,8.93
2018-08-25T08:28:11.124Z,11.80
2018-08-25T08:30:39.346Z,8.23
2018-08-25T08:33:07.593Z,14.80
2018-08-25T08:35:35.750Z,7.00
2018-08-25T08:38:03.984Z,9.30
2018-08-25T08:40:32.179Z,10.20
2018-08-25T08:43:00.386Z,10.33
2018-08-25T08:45:28.627Z,9.20
2018-08-25T08:47:57.113Z,10.20
2018-08-25T08:50:25.419Z,10.27
2018-08-25T08:52:53.581Z,10.23
2018-08-25T08:55:21.786Z,14.27
2018-08-25T08:57:49.960Z,9.63
2018-08-25T09:00:18.154Z,13.90
2018-08-25T09:02:46.340Z,9.87
2018-08-25T09:05:14.573Z,5.90
2018-08-25T09:07:42.780Z,10.47
2018-08-25T09:10:11.009Z,7.83
2018-08-25T09:12:39.203Z,9.87
2018-08-25T09:15:07.478Z,9.00
2018-08-25T09:17:35.761Z,7.10
2018-08-25T09:20:03.998Z,8.10
2018-08-25T09:22:32.241Z,7.63
2018-08-25T09:25:00.426Z,8.83
2018-08-25T09:27:28.697Z,7.50
2018-08-25T09:29:56.891Z,9.20
2018-08-25T09:32:25.118Z,8.57
2018-08-25T09:34:53.276Z,7.50
2018-08-25T09:37:21.465Z,15.60
2018-08-25T09:39:49.651Z,10.47
2018-08-25T09:42:17.887Z,6.97
2018-08-25T09:44:46.042Z,8.67
2018-08-25T09:47:14.252Z,5.90
2018-08-25T09:49:42.425Z,7.20
2018-08-25T09:52:10.627Z,9.83
2018-08-25T09:54:38.781Z,6.40
2018-08-25T09:57:06.954Z,7.13
2018-08-25T09:59:35.156Z,11.27
2018-08-25T10:02:06.908Z,7.20
2018-08-25T10:04:35.117Z,9.53
2018-08-25T10:07:03.346Z,5.70
2018-08-25T10:09:31.548Z,8.03
2018-08-25T10:11:59.681Z,8.40
2018-08-25T10:14:27.869Z,8.10
2018-08-25T10:16:56.173Z,8.40
2018-08-25T10:19:24.382Z,12.73
2018-08-25T10:21:52.678Z,6.40
2018-08-25T10:24:20.866Z,7.10
2018-08-25T10:26:49.044Z,6.27
2018-08-25T10:29:17.224Z,11.90
2018-08-25T10:31:45.481Z,10.77
2018-08-25T10:34:13.669Z,10.10
2018-08-25T10:36:41.968Z,8.97
2018-08-25T10:39:11.611Z,10.60
2018-08-25T10:41:39.898Z,6.53
2018-08-25T10:44:08.465Z,11.53
2018-08-25T10:46:37.441Z,10.53
2018-08-25T10:49:05.933Z,9.80
2018-08-25T10:51:34.154Z,9.87
2018-08-25T10:54:02.467Z,6.20
2018-08-25T10:56:30.602Z,10.00
2018-08-25T10:58:58.829Z,7.00
2018-08-25T11:01:27.105Z,8.33
2018-08-25T11:03:55.309Z,7.87
2018-08-25T11:06:23.477Z,6.47
2018-08-25T11:08:51.675Z,10.50
2018-08-25T11:11:19.907Z,5.83
2018-08-25T11:13:48.087Z,7.77
2018-08-25T11:16:16.248Z,8.10
2018-08-25T11:18:44.436Z,5.70
2018-08-25T11:21:12.642Z,9.93
2018-08-25T11:23:40.882Z,8.30
2018-08-25T11:26:09.067Z,5.87
2018-08-25T11:28:37.271Z,10.53
2018-08-25T11:31:05.453Z,10.90
2018-08-25T11:33:33.665Z,9.07
2018-08-25T11:36:01.850Z,9.23
2018-08-25T11:38:30.043Z,9.57
2018-08-25T11:40:58.236Z,12.70
2018-08-25T11:43:26.385Z,7.50
2018-08-25T11:45:54.589Z,10.97
2018-08-25T11:48:22.785Z,11.13
2018-08-25T11:50:51.032Z,7.90
2018-08-25T11:53:19.208Z,9.43
2018-08-25T11:55:47.425Z,4.77
2018-08-25T11:58:15.592Z,9.60
2018-08-25T12:00:43.864Z,10.00
2018-08-25T12:03:12.086Z,6.70
2018-08-25T12:05:40.345Z,14.53
2018-08-25T12:08:08.580Z,9.03
2018-08-25T12:10:36.836Z,8.43
2018-08-25T12:13:05.330Z,9.47
2018-08-25T12:15:33.607Z,10.47
2018-08-25T12:18:02.333Z,14.73
2018-08-25T12:20:30.553Z,10.93
2018-08-25T12:22:58.747Z,10.40
2018-08-25T12:25:27.000Z,8.27
2018-08-25T12:27:55.193Z,8.60
2018-08-25T12:30:23.396Z,13.10
2018-08-25T12:32:51.577Z,12.80
2018-08-25T12:35:19.787Z,12.70
2018-08-25T12:37:48.017Z,12.80
2018-08-25T12:40:16.211Z,8.63
2018-08-25T12:42:44.394Z,10.00
2018-08-25T12:45:12.706Z,9.80
2018-08-25T12:47:40.840Z,17.07
2018-08-25T12:50:09.072Z,14.17
2018-08-25T12:52:37.286Z,9.47
2018-08-25T12:55:05.680Z,12.87
2018-08-25T12:57:33.911Z,9.90
2018-08-25T13:00:02.171Z,9.60
2018-08-25T13:02:30.440Z,12.57
2018-08-25T13:04:58.701Z,13.57
2018-08-25T13:07:26.941Z,8.90
2018-08-25T13:09:55.216Z,8.00
2018-08-25T13:12:23.435Z,9.40
2018-08-25T13:14:51.657Z,11.10
2018-08-25T13:17:19.870Z,7.80
2018-08-25T13:19:48.079Z,16.07
2018-08-25T13:22:16.314Z,7.00
2018-08-25T13:24:44.533Z,11.33
2018-08-25T13:27:12.829Z,13.53
2018-08-25T13:29:40.948Z,14.63
2018-08-25T13:32:09.152Z,12.20
2018-08-25T13:34:37.352Z,9.27
2018-08-25T13:37:05.545Z,8.07
2018-08-25T13:39:33.737Z,13.17
2018-08-25T13:42:01.988Z,9.37
2018-08-25T13:44:30.208Z,12.10
2018-08-25T13:46:58.445Z,8.43
2018-08-25T13:49:26.689Z,7.93
2018-08-25T13:51:54.953Z,9.13
2018-08-25T13:54:23.187Z,11.73
2018-08-25T13:56:51.388Z,11.93
2018-08-25T13:59:19.824Z,10.27
2018-08-25T14:01:48.016Z,12.57
2018-08-25T14:04:16.228Z,8.27
2018-08-25T14:06:44.400Z,13.03
2018-08-25T14:09:12.627Z,16.23
2018-08-25T14:11:40.811Z,13.70
2018-08-25T14:14:08.992Z,11.33
2018-08-25T14:16:37.233Z,9.13
2018-08-25T14:19:05.510Z,10.90
2018-08-25T14:21:33.710Z,9.73
2018-08-25T14:24:01.971Z,12.30
2018-08-25T14:26:30.243Z,12.53
2018-08-25T14:28:58.501Z,12.60
2018-08-25T14:31:26.734Z,7.37
2018-08-25T14:33:54.935Z,9.60
2018-08-25T14:36:23.203Z,11.73
2018-08-25T14:38:51.397Z,8.80
2018-08-25T14:41:19.597Z,12.47
2018-08-25T14:43:47.799Z,12.43
2018-08-25T14:46:15.988Z,11.13
2018-08-25T14:48:44.196Z,11.33
2018-08-25T14:51:12.436Z,10.73
2018-08-25T14:53:40.636Z,13.03
2018-08-25T14:56:08.861Z,13.87
2018-08-25T14:58:37.067Z,13.23
2018-08-25T15:01:05.257Z,8.57
2018-08-25T15:03:33.473Z,13.50
2018-08-25T15:06:01.679Z,9.93
2018-08-25T15:08:29.893Z,9.13
2018-08-25T15:10:58.066Z,8.87
2018-08-25T15:13:26.308Z,15.10
2018-08-25T15:15:54.498Z,13.80
2018-08-25T15:18:22.742Z,6.03
2018-08-25T15:20:50.954Z,6.83
2018-08-25T15:23:19.166Z,5.73
2018-08-25T15:25:47.360Z,11.43
2018-08-25T15:28:15.592Z,11.80
2018-08-25T15:30:43.773Z,8.60
2018-08-25T15:33:12.438Z,10.33
2018-08-25T15:35:40.624Z,8.33
2018-08-25T15:38:08.826Z,7.67
2018-08-25T15:40:36.994Z,12.97
2018-08-25T15:43:05.225Z,7.03
2018-08-25T15:45:33.453Z,11.80
2018-08-25T15:48:01.651Z,12.30
2018-08-25T15:50:29.939Z,7.23
2018-08-25T15:52:58.208Z,8.50
2018-08-25T15:55:26.454Z,12.13
2018-08-25T15:57:54.810Z,8.13
2018-08-25T16:00:22.909Z,10.87
2018-08-25T16:02:51.209Z,10.10
2018-08-25T16:05:19.476Z,9.00
2018-08-25T16:07:47.702Z,9.80
2018-08-25T16:10:15.975Z,9.63
2018-08-25T16:12:44.204Z,8.53
2018-08-25T16:15:12.434Z,13.43
2018-08-25T16:17:40.680Z,15.80
2018-08-25T16:20:09.014Z,6.57
2018-08-25T16:22:37.408Z,7.87
2018-08-25T16:25:05.688Z,9.80
2018-08-25T16:27:33.964Z,7.17
2018-08-25T16:30:02.208Z,10.10
2018-08-25T16:32:30.448Z,7.57
2018-08-25T16:34:58.711Z,7.60
2018-08-25T16:37:26.939Z,7.77
2018-08-25T16:39:55.172Z,6.13
2018-08-25T16:42:23.411Z,6.93
2018-08-25T16:44:51.626Z,9.73
2018-08-25T16:47:19.857Z,9.93
2018-08-25T16:49:48.090Z,8.40
2018-08-25T16:52:16.358Z,7.67
2018-08-25T16:54:44.544Z,5.83
2018-08-25T16:57:12.806Z,6.00
2018-08-25T16:59:41.164Z,11.60
2018-08-25T17:02:09.522Z,11.23
2018-08-25T17:04:37.666Z,10.97
2018-08-25T17:07:05.861Z,9.70
2018-08-25T17:09:34.083Z,10.80
2018-08-25T17:12:02.291Z,7.73
2018-08-25T17:14:30.483Z,11.80
2018-08-25T17:16:58.712Z,8.90
2018-08-25T17:19:26.981Z,11.20
2018-08-25T17:21:55.162Z,5.87
2018-08-25T17:24:23.432Z,11.37
2018-08-25T17:26:51.676Z,8.97
2018-08-25T17:29:19.843Z,7.70
2018-08-25T17:31:48.065Z,10.27
2018-08-25T17:34:16.271Z,10.40
2018-08-25T17:36:44.505Z,12.00
2018-08-25T17:39:13.158Z,14.70
2018-08-25T17:41:41.602Z,9.47
2018-08-25T17:44:10.056Z,8.43
2018-08-25T17:46:38.244Z,7.00
2018-08-25T17:49:06.577Z,11.53
2018-08-25T17:51:34.789Z,8.07
2018-08-25T17:54:03.068Z,8.93
2018-08-25T17:56:31.217Z,8.43
2018-08-25T17:58:59.373Z,7.80
2018-08-25T18:01:27.553Z,9.90
2018-08-25T18:03:55.992Z,6.27
2018-08-25T18:06:24.174Z,9.77
2018-08-25T18:08:52.399Z,9.60
2018-08-25T18:11:20.610Z,13.20
2018-08-25T18:13:48.850Z,9.53
2018-08-25T18:16:17.044Z,7.60
2018-08-25T18:18:45.229Z,7.60
2018-08-25T18:21:13.742Z,7.97
2018-08-25T18:23:41.940Z,10.67
2018-08-25T18:26:10.124Z,7.63
2018-08-25T18:28:38.322Z,10.83
2018-08-25T18:31:06.493Z,12.70
2018-08-25T18:33:34.688Z,8.80
2018-08-25T18:36:02.908Z,13.37
2018-08-25T18:38:31.073Z,9.17
2018-08-25T18:40:59.249Z,9.23
2018-08-25T18:43:27.464Z,14.27
2018-08-25T18:45:55.645Z,10.53
2018-08-25T18:48:23.891Z,10.97
2018-08-25T18:50:52.057Z,6.47
2018-08-25T18:53:20.216Z,6.90
2018-08-25T18:55:48.432Z,9.27
2018-08-25T18:58:16.611Z,8.10
2018-08-25T19:00:44.845Z,6.47
2018-08-25T19:03:13.044Z,10.87
2018-08-25T19:05:41.248Z,10.37
2018-08-25T19:08:09.429Z,10.90
2018-08-25T19:10:37.628Z,9.83
2018-08-25T19:13:05.871Z,11.60
2018-08-25T19:15:34.080Z,9.70
2018-08-25T19:18:02.313Z,8.63
2018-08-25T19:20:30.548Z,8.40
2018-08-25T19:22:58.752Z,9.90
2018-08-25T19:25:26.925Z,11.87
2018-08-25T19:27:55.161Z,11.33
2018-08-25T19:30:23.352Z,7.20
2018-08-25T19:32:51.546Z,9.63
2018-08-25T19:35:19.793Z,6.20
2018-08-25T19:37:47.965Z,12.53
2018-08-25T19:40:16.157Z,4.97
2018-08-25T19:42:44.468Z,7.50
2018-08-25T19:45:12.669Z,7.27
2018-08-25T19:47:40.924Z,9.67
2018-08-25T19:50:09.130Z,7.90
2018-08-25T19:52:37.346Z,9.27
2018-08-25T19:55:05.556Z,13.57
2018-08-25T19:57:33.744Z,8.20
2018-08-25T20:00:01.974Z,7.10
2018-08-25T20:02:30.153Z,9.57
2018-08-25T20:04:58.371Z,7.60
2018-08-25T20:07:26.695Z,6.63
2018-08-25T20:09:55.867Z,6.77
2018-08-25T20:12:24.078Z,6.80
2018-08-25T20:14:52.281Z,9.43
2018-08-25T20:17:20.470Z,9.57
2018-08-25T20:19:48.676Z,7.93
2018-08-25T20:22:16.859Z,7.33
2018-08-25T20:24:45.133Z,10.00
2018-08-25T20:27:13.341Z,9.83
2018-08-25T20:29:41.580Z,10.00
2018-08-25T20:32:09.749Z,7.20
2018-08-25T20:34:37.927Z,5.77
2018-08-25T20:37:06.123Z,5.73
2018-08-25T20:39:34.294Z,10.63
2018-08-25T20:42:02.576Z,7.60
2018-08-25T20:44:30.761Z,5.90
2018-08-25T20:46:58.963Z,5.70
2018-08-25T20:49:27.573Z,6.80
2018-08-25T20:51:55.761Z,9.90
2018-08-25T20:54:23.948Z,6.60
2018-08-25T20:56:52.174Z,7.40
2018-08-25T20:59:20.329Z,6.40
2018-08-25T21:01:48.517Z,4.80
2018-08-25T21:04:16.678Z,6.40
2018-08-25T21:06:44.967Z,7.50
2018-08-25T21:09:13.149Z,11.90
2018-08-25T21:11:41.336Z,8.87
2018-08-25T21:14:09.516Z,6.67
2018-08-25T21:16:37.740Z,7.40
2018-08-25T21:19:06.020Z,5.70
2018-08-25T21:21:34.245Z,7.70
2018-08-25T21:24:02.478Z,9.50
2018-08-25T21:26:30.689Z,6.57
2018-08-25T21:28:58.888Z,6.87
2018-08-25T21:31:27.108Z,7.40
2018-08-25T21:33:55.320Z,10.00
2018-08-25T21:36:23.542Z,8.13
2018-08-25T21:38:51.748Z,8.40
2018-08-25T21:41:19.954Z,7.10
2018-08-25T21:43:48.168Z,9.30
2018-08-25T21:46:16.397Z,5.17
2018-08-25T21:48:44.572Z,9.90
2018-08-25T21:51:12.772Z,8.20
2018-08-25T21:53:41.129Z,8.40
2018-08-25T21:56:09.355Z,7.47
2018-08-25T21:58:37.604Z,9.73
2018-08-25T22:01:05.832Z,7.27
2018-08-25T22:03:34.037Z,5.93
2018-08-25T22:06:02.257Z,6.03
2018-08-25T22:08:30.463Z,7.20
2018-08-25T22:10:58.669Z,7.23
2018-08-25T22:13:26.875Z,7.93
2018-08-25T22:15:55.083Z,6.70
2018-08-25T22:18:23.292Z,10.33
2018-08-25T22:20:51.509Z,7.07
2018-08-25T22:23:19.724Z,6.70
2018-08-25T22:25:47.995Z,7.03
2018-08-25T22:28:16.221Z,7.60
2018-08-25T22:30:44.438Z,4.20
2018-08-25T22:33:12.672Z,9.97
2018-08-25T22:35:40.893Z,11.37
2018-08-25T22:38:09.108Z,8.90
2018-08-25T22:40:37.310Z,7.53
2018-08-25T22:43:05.550Z,12.13
2018-08-25T22:45:33.749Z,7.70
2018-08-25T22:48:01.980Z,8.73
2018-08-25T22:50:30.241Z,6.90
2018-08-25T22:52:58.477Z,6.43
2018-08-25T22:55:26.709Z,5.63
2018-08-25T22:57:54.914Z,7.50
2018-08-25T23:00:23.104Z,8.60
2018-08-25T23:02:51.323Z,5.53
2018-08-25T23:05:19.522Z,5.97
2018-08-25T23:07:47.754Z,8.00
2018-08-25T23:10:16.395Z,8.13
2018-08-25T23:12:44.612Z,6.50
2018-08-25T23:15:12.813Z,13.23
2018-08-25T23:17:41.001Z,6.50
2018-08-25T23:20:09.176Z,8.27
2018-08-25T23:22:37.414Z,10.47
2018-08-25T23:25:05.628Z,11.50
2018-08-25T23:27:33.850Z,9.37
2018-08-25T23:30:02.061Z,5.90
2018-08-25T23:32:30.272Z,6.07
2018-08-25T23:34:58.452Z,7.70
2018-08-25T23:37:26.661Z,8.40
2018-08-25T23:39:54.865Z,7.77
2018-08-25T23:42:23.081Z,12.20
2018-08-25T23:44:51.256Z,6.40
2018-08-25T23:47:19.464Z,8.10
2018-08-25T23:49:47.631Z,6.80
2018-08-25T23:52:15.853Z,8.60
2018-08-25T23:54:44.104Z,9.70
2018-08-25T23:57:12.312Z,6.57
2018-08-25T23:59:40.520Z,10.80
